createdAt,value
2022-08-23T00:02:17.683Z,6.23
2022-08-23T00:07:20.375Z,5.80
2022-08-23T00:12:21.030Z,6.20
2022-08-23T00:17:33.529Z,5.60
2022-08-23T00:22:27.158Z,6.80
2022-08-23T00:27:19.383Z,5.50
2022-08-23T00:32:15.800Z,6.67
2022-08-23T00:37:09.507Z,6.00
2022-08-23T00:42:32.468Z,6.77
2022-08-23T00:47:41.598Z,5.53
2022-08-23T00:52:42.482Z,5.87
2022-08-23T00:57:37.358Z,5.33
2022-08-23T01:02:29.930Z,5.33
2022-08-23T01:07:54.711Z,5.07
2022-08-23T01:12:54.401Z,5.20
2022-08-23T01:18:00.250Z,5.80
2022-08-23T01:23:07.425Z,5.60
2022-08-23T01:28:01.099Z,5.20
2022-08-23T01:32:57.059Z,5.30
2022-08-23T01:37:49.325Z,5.13
2022-08-23T01:42:42.523Z,5.70
2022-08-23T01:48:33.675Z,5.13
2022-08-23T01:54:40.855Z,5.50
2022-08-23T02:00:48.142Z,4.87
2022-08-23T02:06:56.232Z,4.97
2022-08-23T02:13:03.491Z,4.80
2022-08-23T02:19:10.537Z,4.67
2022-08-23T02:25:19.078Z,4.97
2022-08-23T02:31:27.288Z,4.80
2022-08-23T02:37:35.721Z,4.97
2022-08-23T02:43:42.814Z,5.27
2022-08-23T02:49:50.123Z,5.60
2022-08-23T02:55:57.079Z,4.90
2022-08-23T03:02:05.198Z,6.10
2022-08-23T03:08:12.520Z,5.10
2022-08-23T03:14:19.646Z,5.63
2022-08-23T03:20:26.698Z,4.47
2022-08-23T03:26:33.689Z,5.77
2022-08-23T03:32:40.712Z,4.97
2022-08-23T03:38:56.185Z,5.83
2022-08-23T03:44:50.537Z,5.07
2022-08-23T03:49:52.151Z,5.93
2022-08-23T03:54:44.653Z,6.23
2022-08-23T03:59:41.581Z,5.07
2022-08-23T04:04:36.985Z,5.00
2022-08-23T04:10:01.781Z,4.77
2022-08-23T04:15:02.384Z,5.47
2022-08-23T04:19:56.947Z,5.77
2022-08-23T04:24:49.833Z,5.17
2022-08-23T04:29:42.309Z,4.70
2022-08-23T04:35:32.227Z,4.60
2022-08-23T04:41:39.222Z,4.50
2022-08-23T04:47:46.550Z,4.87
2022-08-23T04:53:53.741Z,4.63
2022-08-23T05:00:00.849Z,4.60
2022-08-23T05:06:07.782Z,4.50
2022-08-23T05:12:15.216Z,5.50
2022-08-23T05:18:23.327Z,5.10
2022-08-23T05:24:31.332Z,4.70
2022-08-23T05:30:38.324Z,4.47
2022-08-23T05:36:48.435Z,4.27
2022-08-23T05:43:03.063Z,4.83
2022-08-23T05:49:10.625Z,5.07
2022-08-23T05:55:17.144Z,4.83
2022-08-23T06:01:24.005Z,5.23
2022-08-23T06:07:31.116Z,5.67
2022-08-23T06:13:38.419Z,5.10
2022-08-23T06:19:45.572Z,5.67
2022-08-23T06:25:53.035Z,5.87
2022-08-23T06:32:00.215Z,5.13
2022-08-23T06:37:15.138Z,5.73
2022-08-23T06:42:41.257Z,6.47
2022-08-23T06:47:35.443Z,5.33
2022-08-23T06:52:28.604Z,5.10
2022-08-23T06:57:43.619Z,5.47
2022-08-23T07:03:00.468Z,5.13
2022-08-23T07:08:11.360Z,5.30
2022-08-23T07:13:04.358Z,5.37
2022-08-23T07:17:56.635Z,4.93
2022-08-23T07:22:50.425Z,4.93
2022-08-23T07:27:43.230Z,5.03
2022-08-23T07:32:35.679Z,6.10
2022-08-23T07:37:43.994Z,4.70
2022-08-23T07:42:37.559Z,5.40
2022-08-23T07:47:32.005Z,5.50
2022-08-23T07:52:25.487Z,6.57
2022-08-23T07:57:20.115Z,6.83
2022-08-23T08:02:20.142Z,7.27
2022-08-23T08:07:21.126Z,7.17
2022-08-23T08:12:22.140Z,8.33
2022-08-23T08:17:25.426Z,7.90
2022-08-23T08:22:37.806Z,7.93
2022-08-23T08:27:50.318Z,7.20
2022-08-23T08:32:47.209Z,8.43
2022-08-23T08:37:39.960Z,9.50
2022-08-23T08:43:09.286Z,9.57
2022-08-23T08:48:13.411Z,9.27
2022-08-23T08:53:16.917Z,8.80
2022-08-23T08:58:55.910Z,8.30
2022-08-23T09:03:48.689Z,8.17
2022-08-23T09:09:02.176Z,9.17
2022-08-23T09:14:08.825Z,7.83
2022-08-23T09:19:03.750Z,8.43
2022-08-23T09:23:58.793Z,7.40
2022-08-23T09:29:28.132Z,7.67
2022-08-23T09:34:38.558Z,7.77
2022-08-23T09:39:38.620Z,7.13
2022-08-23T09:44:41.136Z,6.40
2022-08-23T09:49:37.292Z,5.97
2022-08-23T09:54:36.295Z,5.87
2022-08-23T09:59:46.036Z,5.17
2022-08-23T10:04:47.709Z,4.60
2022-08-23T10:09:41.226Z,4.40
2022-08-23T10:14:33.956Z,4.50
2022-08-23T10:20:09.067Z,4.53
2022-08-23T10:25:14.820Z,4.57
2022-08-23T10:30:17.482Z,4.40
2022-08-23T10:35:43.355Z,3.97
2022-08-23T10:41:00.167Z,4.00
2022-08-23T10:46:00.391Z,4.17
2022-08-23T10:51:23.268Z,3.30
2022-08-23T10:56:25.092Z,3.60
2022-08-23T11:01:29.441Z,3.27
2022-08-23T11:06:25.721Z,3.70
2022-08-23T11:11:40.940Z,3.53
2022-08-23T11:16:34.846Z,3.50
2022-08-23T11:21:33.487Z,4.07
2022-08-23T11:26:38.216Z,5.67
2022-08-23T11:31:37.991Z,4.50
2022-08-23T11:36:31.940Z,4.17
2022-08-23T11:41:56.637Z,3.80
2022-08-23T11:46:54.621Z,3.30
2022-08-23T11:52:31.575Z,3.47
2022-08-23T11:57:50.410Z,3.30
2022-08-23T12:02:53.154Z,3.47
2022-08-23T12:07:50.981Z,4.90
2022-08-23T12:12:47.114Z,3.00
2022-08-23T12:17:42.790Z,4.03
2022-08-23T12:22:53.168Z,3.57
2022-08-23T12:27:50.397Z,3.40
2022-08-23T12:32:45.615Z,3.27
2022-08-23T12:37:47.907Z,3.67
2022-08-23T12:42:41.461Z,3.37
2022-08-23T12:47:34.304Z,2.83
2022-08-23T12:52:31.736Z,3.60
2022-08-23T12:57:39.857Z,3.57
2022-08-23T13:02:34.420Z,3.37
2022-08-23T13:07:27.032Z,3.30
2022-08-23T13:12:19.906Z,4.00
2022-08-23T13:17:27.435Z,4.83
2022-08-23T13:22:19.689Z,3.10
2022-08-23T13:27:22.682Z,3.33
2022-08-23T13:32:35.552Z,3.77
2022-08-23T13:37:31.009Z,3.37
2022-08-23T13:42:42.900Z,3.20
2022-08-23T13:47:37.712Z,3.43
2022-08-23T13:57:43.582Z,3.13
2022-08-23T14:02:37.349Z,3.30
2022-08-23T14:07:29.667Z,3.20
2022-08-23T14:12:27.581Z,2.87
2022-08-23T14:17:23.954Z,2.37
2022-08-23T14:22:17.878Z,3.20
2022-08-23T14:27:11.242Z,3.27
2022-08-23T14:32:04.639Z,4.37
2022-08-23T14:42:13.411Z,2.87
2022-08-23T14:47:07.018Z,3.30
2022-08-23T14:51:59.787Z,3.20
2022-08-23T14:56:54.085Z,3.87
2022-08-23T15:01:49.237Z,3.90
2022-08-23T15:07:00.412Z,3.67
2022-08-23T15:17:08.546Z,3.03
2022-08-23T15:22:06.519Z,2.93
2022-08-23T15:27:12.451Z,2.93
2022-08-23T15:32:04.975Z,3.53
2022-08-23T15:36:59.983Z,3.10
2022-08-23T15:41:52.309Z,3.40
2022-08-23T15:46:48.433Z,6.87
2022-08-23T15:51:42.007Z,3.80
2022-08-23T15:56:54.867Z,4.00
2022-08-23T16:01:47.450Z,3.00
2022-08-23T16:06:40.444Z,3.20
2022-08-23T16:11:32.841Z,3.13
2022-08-23T16:16:31.628Z,4.00
2022-08-23T16:21:27.014Z,3.10
2022-08-23T16:26:22.767Z,3.20
2022-08-23T16:31:38.440Z,3.70
2022-08-23T16:36:31.507Z,3.23
2022-08-23T16:41:24.110Z,3.10
2022-08-23T16:46:20.755Z,3.30
2022-08-23T16:51:13.120Z,3.30
2022-08-23T16:56:07.119Z,3.90
2022-08-23T17:00:59.497Z,3.90
2022-08-23T17:05:52.059Z,2.97
2022-08-23T17:10:45.201Z,3.67
2022-08-23T17:15:38.257Z,3.80
2022-08-23T17:20:33.482Z,3.50
2022-08-23T17:25:26.805Z,3.80
2022-08-23T17:30:21.850Z,3.67
2022-08-23T17:35:21.777Z,4.10
2022-08-23T17:40:21.334Z,4.03
2022-08-23T17:45:14.318Z,3.47
2022-08-23T17:50:08.660Z,4.33
2022-08-23T17:55:01.456Z,4.00
2022-08-23T17:59:55.108Z,4.00
2022-08-23T18:04:48.253Z,5.00
2022-08-23T18:09:48.638Z,4.77
2022-08-23T18:14:41.482Z,4.80
2022-08-23T18:19:34.049Z,4.33
2022-08-23T18:24:26.772Z,5.30
2022-08-23T18:29:19.335Z,6.07
2022-08-23T18:34:13.538Z,6.27
2022-08-23T18:39:07.910Z,5.77
2022-08-23T18:44:03.571Z,4.80
2022-08-23T18:48:59.626Z,5.20
2022-08-23T18:53:54.261Z,5.20
2022-08-23T18:58:48.251Z,5.10
2022-08-23T19:03:40.546Z,4.90
2022-08-23T19:08:33.271Z,5.60
2022-08-23T19:13:29.241Z,4.77
2022-08-23T19:18:21.760Z,6.33
2022-08-23T19:23:14.452Z,5.30
2022-08-23T19:28:07.052Z,6.27
2022-08-23T19:32:59.882Z,5.67
2022-08-23T19:37:52.639Z,5.57
2022-08-23T19:42:45.260Z,5.47
2022-08-23T19:47:37.811Z,4.63
2022-08-23T19:52:30.253Z,5.10
2022-08-23T19:57:23.229Z,4.63
2022-08-23T20:02:15.559Z,4.63
2022-08-23T20:07:07.924Z,5.27
2022-08-23T20:12:01.296Z,4.27
2022-08-23T20:16:54.536Z,4.53
2022-08-23T20:21:47.107Z,4.87
2022-08-23T20:26:47.717Z,5.40
2022-08-23T20:31:49.355Z,5.33
2022-08-23T20:36:41.559Z,5.20
2022-08-23T20:41:36.033Z,5.13
2022-08-23T20:46:29.190Z,5.13
2022-08-23T20:51:22.763Z,4.90
2022-08-23T20:56:16.216Z,5.50
2022-08-23T21:01:10.183Z,5.60
2022-08-23T21:06:09.255Z,4.97
2022-08-23T21:11:01.937Z,6.23
2022-08-23T21:15:56.046Z,5.83
2022-08-23T21:20:48.453Z,5.70
2022-08-23T21:25:41.567Z,5.53
2022-08-23T21:30:34.064Z,6.37
2022-08-23T21:35:27.295Z,6.57
2022-08-23T21:40:19.655Z,6.17
2022-08-23T21:45:12.142Z,6.23
2022-08-23T21:51:00.763Z,7.10
2022-08-23T21:57:10.180Z,6.90
2022-08-23T22:03:17.334Z,7.03
2022-08-23T22:09:25.706Z,6.60
2022-08-23T22:15:38.386Z,6.87
2022-08-23T22:21:45.367Z,7.53
2022-08-23T22:27:53.629Z,8.03
2022-08-23T22:34:00.881Z,8.87
2022-08-23T22:40:09.162Z,7.17
2022-08-23T22:46:17.412Z,7.80
2022-08-23T22:52:24.393Z,7.00
2022-08-23T22:58:31.869Z,7.07
2022-08-23T23:04:40.191Z,7.03
2022-08-23T23:10:47.449Z,7.23
2022-08-23T23:16:54.678Z,9.03
2022-08-23T23:23:02.358Z,8.67
2022-08-23T23:29:09.343Z,8.43
2022-08-23T23:35:19.168Z,9.70
2022-08-23T23:41:27.149Z,9.23
2022-08-23T23:46:38.184Z,9.93
2022-08-23T23:51:32.834Z,9.27
2022-08-23T23:56:26.432Z,8.57
